sensor_id;sensor_type;location;lat;lon;timestamp;pressure;altitude;pressure_sealevel;temperature;humidity
34370;BME280;20635;55.812;37.560;2022-09-01T00:01:35;98759.19;;;25.94;44.14
34370;BME280;20635;55.812;37.560;2022-09-01T00:04:04;98758.00;;;25.95;44.24
34370;BME280;20635;55.812;37.560;2022-09-01T00:06:31;98753.56;;;25.94;44.02
34370;BME280;20635;55.812;37.560;2022-09-01T00:09:00;98758.00;;;25.95;44.22
34370;BME280;20635;55.812;37.560;2022-09-01T00:11:28;98754.72;;;25.93;44.51
34370;BME280;20635;55.812;37.560;2022-09-01T00:13:55;98770.41;;;25.94;44.58
34370;BME280;20635;55.812;37.560;2022-09-01T00:16:21;98756.72;;;25.92;44.60
34370;BME280;20635;55.812;37.560;2022-09-01T00:18:49;98762.34;;;25.92;44.08
34370;BME280;20635;55.812;37.560;2022-09-01T00:21:18;98761.53;;;25.92;44.13
34370;BME280;20635;55.812;37.560;2022-09-01T00:23:45;98764.69;;;25.90;44.37
34370;BME280;20635;55.812;37.560;2022-09-01T00:26:11;98761.06;;;25.90;44.78
34370;BME280;20635;55.812;37.560;2022-09-01T00:28:38;98763.88;;;25.90;44.56
34370;BME280;20635;55.812;37.560;2022-09-01T00:31:05;98765.88;;;25.89;44.20
34370;BME280;20635;55.812;37.560;2022-09-01T00:33:33;98761.41;;;25.88;44.84
34370;BME280;20635;55.812;37.560;2022-09-01T00:36:00;98759.78;;;25.87;44.52
34370;BME280;20635;55.812;37.560;2022-09-01T00:38:26;98754.97;;;25.88;44.72
34370;BME280;20635;55.812;37.560;2022-09-01T00:40:52;98758.59;;;25.88;44.76
34370;BME280;20635;55.812;37.560;2022-09-01T00:45:59;98749.75;;;25.86;44.23
34370;BME280;20635;55.812;37.560;2022-09-01T00:48:25;98754.19;;;25.87;44.06
34370;BME280;20635;55.812;37.560;2022-09-01T00:50:52;98754.97;;;25.88;43.72
34370;BME280;20635;55.812;37.560;2022-09-01T00:53:18;98759.78;;;25.87;43.87
34370;BME280;20635;55.812;37.560;2022-09-01T00:55:44;98760.97;;;25.86;43.71
34370;BME280;20635;55.812;37.560;2022-09-01T00:58:10;98747.31;;;25.85;43.52
34370;BME280;20635;55.812;37.560;2022-09-01T01:00:37;98772.56;;;25.85;43.97
34370;BME280;20635;55.812;37.560;2022-09-01T01:03:14;98769.03;;;25.88;43.74
34370;BME280;20635;55.812;37.560;2022-09-01T01:05:43;98770.56;;;25.85;43.89
34370;BME280;20635;55.812;37.560;2022-09-01T01:08:13;98766.09;;;25.84;43.98
34370;BME280;20635;55.812;37.560;2022-09-01T01:10:43;98768.91;;;25.84;44.04
34370;BME280;20635;55.812;37.560;2022-09-01T01:13:13;98772.56;;;25.85;43.94
34370;BME280;20635;55.812;37.560;2022-09-01T01:15:41;98754.06;;;25.84;43.76
34370;BME280;20635;55.812;37.560;2022-09-01T01:18:17;98758.97;;;25.87;43.74
34370;BME280;20635;55.812;37.560;2022-09-01T01:20:43;98754.88;;;25.84;44.03
34370;BME280;20635;55.812;37.560;2022-09-01T01:23:38;98757.69;;;25.84;43.79
34370;BME280;20635;55.812;37.560;2022-09-01T01:26:07;98764.97;;;25.85;43.59
34370;BME280;20635;55.812;37.560;2022-09-01T01:28:38;98759.34;;;25.85;43.69
34370;BME280;20635;55.812;37.560;2022-09-01T01:31:08;98752.06;;;25.84;43.81
34370;BME280;20635;55.812;37.560;2022-09-01T01:33:44;98756.06;;;25.83;43.48
34370;BME280;20635;55.812;37.560;2022-09-01T01:36:38;98754.19;;;25.87;43.82
34370;BME280;20635;55.812;37.560;2022-09-01T01:39:12;98759.34;;;25.85;43.83
34370;BME280;20635;55.812;37.560;2022-09-01T01:41:40;98749.63;;;25.83;43.69
34370;BME280;20635;55.812;37.560;2022-09-01T01:44:12;98748.44;;;25.84;43.61
34370;BME280;20635;55.812;37.560;2022-09-01T01:46:44;98752.91;;;25.85;43.50
34370;BME280;20635;55.812;37.560;2022-09-01T01:49:12;98757.25;;;25.82;43.26
34370;BME280;20635;55.812;37.560;2022-09-01T01:51:43;98742.41;;;25.82;43.15
34370;BME280;20635;55.812;37.560;2022-09-01T01:54:11;98747.19;;;25.81;42.99
34370;BME280;20635;55.812;37.560;2022-09-01T01:56:37;98741.59;;;25.81;43.12
34370;BME280;20635;55.812;37.560;2022-09-01T01:59:08;98750.00;;;25.81;43.20
34370;BME280;20635;55.812;37.560;2022-09-01T02:01:42;98756.81;;;25.80;43.31
34370;BME280;20635;55.812;37.560;2022-09-01T02:04:10;98751.19;;;25.80;43.21
34370;BME280;20635;55.812;37.560;2022-09-01T02:06:37;98752.81;;;25.81;43.12
34370;BME280;20635;55.812;37.560;2022-09-01T02:09:07;98757.13;;;25.78;42.88
34370;BME280;20635;55.812;37.560;2022-09-01T02:11:33;98757.13;;;25.78;43.00
34370;BME280;20635;55.812;37.560;2022-09-01T02:14:04;98766.38;;;25.79;42.98
34370;BME280;20635;55.812;37.560;2022-09-01T02:16:32;98754.69;;;25.77;43.00
34370;BME280;20635;55.812;37.560;2022-09-01T02:19:01;98756.69;;;25.76;43.41
34370;BME280;20635;55.812;37.560;2022-09-01T02:21:28;98756.19;;;25.74;42.94
34370;BME280;20635;55.812;37.560;2022-09-01T02:23:58;98765.41;;;25.75;43.24
34370;BME280;20635;55.812;37.560;2022-09-01T02:26:34;98760.31;;;25.77;43.09
34370;BME280;20635;55.812;37.560;2022-09-01T02:29:06;98766.25;;;25.75;42.80
34370;BME280;20635;55.812;37.560;2022-09-01T02:31:37;98760.16;;;25.73;42.57
34370;BME280;20635;55.812;37.560;2022-09-01T02:34:08;98761.78;;;25.74;42.75
34370;BME280;20635;55.812;37.560;2022-09-01T02:36:44;98755.75;;;25.72;43.29
34370;BME280;20635;55.812;37.560;2022-09-01T02:39:16;98766.16;;;25.72;42.65
34370;BME280;20635;55.812;37.560;2022-09-01T02:41:43;98755.25;;;25.70;42.46
34370;BME280;20635;55.812;37.560;2022-09-01T02:44:09;98764.53;;;25.71;42.58
34370;BME280;20635;55.812;37.560;2022-09-01T02:46:41;98760.88;;;25.70;42.59
34370;BME280;20635;55.812;37.560;2022-09-01T02:49:09;98758.44;;;25.69;43.27
34370;BME280;20635;55.812;37.560;2022-09-01T02:51:49;98768.47;;;25.70;43.34
34370;BME280;20635;55.812;37.560;2022-09-01T02:54:20;98764.28;;;25.76;43.43
34370;BME280;20635;55.812;37.560;2022-09-01T02:56:49;98753.31;;;25.71;43.08
34370;BME280;20635;55.812;37.560;2022-09-01T02:59:23;98754.44;;;25.70;42.85
34370;BME280;20635;55.812;37.560;2022-09-01T03:01:52;98750.03;;;25.69;42.85
34370;BME280;20635;55.812;37.560;2022-09-01T03:04:20;98752.38;;;25.67;43.06
34370;BME280;20635;55.812;37.560;2022-09-01T03:06:47;98749.56;;;25.67;42.75
34370;BME280;20635;55.812;37.560;2022-09-01T03:09:16;98750.38;;;25.67;42.65
34370;BME280;20635;55.812;37.560;2022-09-01T03:11:49;98751.19;;;25.68;42.57
34370;BME280;20635;55.812;37.560;2022-09-01T03:14:16;98747.91;;;25.66;42.62
34370;BME280;20635;55.812;37.560;2022-09-01T03:16:42;98750.72;;;25.66;42.58
34370;BME280;20635;55.812;37.560;2022-09-01T03:19:09;98755.53;;;25.65;42.88
34370;BME280;20635;55.812;37.560;2022-09-01T03:21:38;98755.53;;;25.65;42.62
34370;BME280;20635;55.812;37.560;2022-09-01T03:24:07;98761.94;;;25.66;42.53
34370;BME280;20635;55.812;37.560;2022-09-01T03:26:35;98758.69;;;25.64;42.61
34370;BME280;20635;55.812;37.560;2022-09-01T03:29:02;98754.72;;;25.65;42.43
34370;BME280;20635;55.812;37.560;2022-09-01T03:31:28;98751.47;;;25.63;42.71
34370;BME280;20635;55.812;37.560;2022-09-01T03:33:56;98754.59;;;25.61;42.67
34370;BME280;20635;55.812;37.560;2022-09-01T03:36:28;98763.50;;;25.63;42.82
34370;BME280;20635;55.812;37.560;2022-09-01T03:38:56;98754.25;;;25.63;43.25
34370;BME280;20635;55.812;37.560;2022-09-01T03:41:26;98754.25;;;25.63;43.17
34370;BME280;20635;55.812;37.560;2022-09-01T03:43:53;98761.03;;;25.62;43.22
34370;BME280;20635;55.812;37.560;2022-09-01T03:46:24;98763.50;;;25.63;43.18
34370;BME280;20635;55.812;37.560;2022-09-01T03:48:53;98768.28;;;25.63;43.29
34370;BME280;20635;55.812;37.560;2022-09-01T03:51:23;98764.66;;;25.62;43.32
34370;BME280;20635;55.812;37.560;2022-09-01T03:53:52;98761.03;;;25.62;43.42
34370;BME280;20635;55.812;37.560;2022-09-01T03:56:20;98767.00;;;25.60;42.90
34370;BME280;20635;55.812;37.560;2022-09-01T03:58:46;98756.41;;;25.53;42.06
34370;BME280;20635;55.812;37.560;2022-09-01T04:01:14;98764.22;;;25.48;42.18
34370;BME280;20635;55.812;37.560;2022-09-01T04:03:41;98753.25;;;25.43;41.98
34370;BME280;20635;55.812;37.560;2022-09-01T04:06:10;98741.38;;;25.34;41.65
34370;BME280;20635;55.812;37.560;2022-09-01T04:08:37;98748.41;;;25.27;41.40
34370;BME280;20635;55.812;37.560;2022-09-01T04:11:10;98749.91;;;25.25;41.66
34370;BME280;20635;55.812;37.560;2022-09-01T04:13:39;98744.44;;;25.16;41.51
34370;BME280;20635;55.812;37.560;2022-09-01T04:16:14;98753.91;;;25.12;41.50
34370;BME280;20635;55.812;37.560;2022-09-01T04:19:01;98761.72;;;25.06;41.41
34370;BME280;20635;55.812;37.560;2022-09-01T04:21:42;98755.56;;;25.00;41.30
34370;BME280;20635;55.812;37.560;2022-09-01T04:24:09;98751.00;;;24.96;41.23
34370;BME280;20635;55.812;37.560;2022-09-01T04:26:38;98746.91;;;24.93;41.20
34370;BME280;20635;55.812;37.560;2022-09-01T04:29:05;98749.13;;;24.88;41.24
34370;BME280;20635;55.812;37.560;2022-09-01T04:31:35;98753.00;;;24.83;41.03
34370;BME280;20635;55.812;37.560;2022-09-01T04:34:03;98754.16;;;24.82;41.28
34370;BME280;20635;55.812;37.560;2022-09-01T04:36:37;98752.06;;;24.79;41.47
34370;BME280;20635;55.812;37.560;2022-09-01T04:39:07;98755.22;;;24.77;41.32
34370;BME280;20635;55.812;37.560;2022-09-01T04:41:37;98750.66;;;24.73;41.05
34370;BME280;20635;55.812;37.560;2022-09-01T04:44:06;98757.31;;;24.68;41.35
34370;BME280;20635;55.812;37.560;2022-09-01T04:46:40;98756.84;;;24.66;41.02
34370;BME280;20635;55.812;37.560;2022-09-01T04:49:09;98746.69;;;24.62;40.77
34370;BME280;20635;55.812;37.560;2022-09-01T04:51:39;98762.59;;;24.58;40.80
34370;BME280;20635;55.812;37.560;2022-09-01T04:54:06;98749.63;;;24.53;40.58
34370;BME280;20635;55.812;37.560;2022-09-01T04:56:35;98755.91;;;24.50;40.86
34370;BME280;20635;55.812;37.560;2022-09-01T04:59:12;98748.56;;;24.45;40.48
34370;BME280;20635;55.812;37.560;2022-09-01T05:01:40;98742.03;;;24.41;40.66
34370;BME280;20635;55.812;37.560;2022-09-01T05:04:14;98751.91;;;24.39;41.73
34370;BME280;20635;55.812;37.560;2022-09-01T05:06:45;98761.97;;;24.40;40.96
34370;BME280;20635;55.812;37.560;2022-09-01T05:09:16;98752.28;;;24.37;40.84
34370;BME280;20635;55.812;37.560;2022-09-01T05:12:01;98747.34;;;24.34;40.94
34370;BME280;20635;55.812;37.560;2022-09-01T05:14:38;98760.88;;;24.32;40.66
34370;BME280;20635;55.812;37.560;2022-09-01T05:17:08;98755.50;;;24.27;40.51
34370;BME280;20635;55.812;37.560;2022-09-01T05:19:39;98757.81;;;24.25;40.24
34370;BME280;20635;55.812;37.560;2022-09-01T05:22:06;98757.22;;;24.19;40.44
34370;BME280;20635;55.812;37.560;2022-09-01T05:24:34;98756.78;;;24.17;40.70
34370;BME280;20635;55.812;37.560;2022-09-01T05:27:04;98765.50;;;24.16;40.26
34370;BME280;20635;55.812;37.560;2022-09-01T05:29:34;98765.41;;;24.12;40.17
34370;BME280;20635;55.812;37.560;2022-09-01T05:32:03;98757.69;;;24.09;40.07
34370;BME280;20635;55.812;37.560;2022-09-01T05:34:35;98754.41;;;24.07;40.06
34370;BME280;20635;55.812;37.560;2022-09-01T05:37:02;98765.59;;;24.07;40.07
34370;BME280;20635;55.812;37.560;2022-09-01T05:39:31;98764.69;;;24.03;39.94
34370;BME280;20635;55.812;37.560;2022-09-01T05:41:58;98768.63;;;24.02;40.22
34370;BME280;20635;55.812;37.560;2022-09-01T05:44:25;98765.34;;;24.00;40.05
34370;BME280;20635;55.812;37.560;2022-09-01T05:46:53;98758.94;;;23.99;40.03
34370;BME280;20635;55.812;37.560;2022-09-01T05:49:26;98758.47;;;23.97;40.19
34370;BME280;20635;55.812;37.560;2022-09-01T05:51:59;98757.19;;;23.95;40.18
34370;BME280;20635;55.812;37.560;2022-09-01T05:54:30;98766.63;;;24.02;40.67
34370;BME280;20635;55.812;37.560;2022-09-01T05:56:58;98756.81;;;23.96;40.43
34370;BME280;20635;55.812;37.560;2022-09-01T05:59:26;98761.47;;;23.92;40.32
34370;BME280;20635;55.812;37.560;2022-09-01T06:02:04;98761.84;;;23.91;40.42
34370;BME280;20635;55.812;37.560;2022-09-01T06:04:34;98753.78;;;23.89;40.38
34370;BME280;20635;55.812;37.560;2022-09-01T06:07:11;98757.72;;;23.88;40.13
34370;BME280;20635;55.812;37.560;2022-09-01T06:09:44;98764.13;;;23.89;40.48
34370;BME280;20635;55.812;37.560;2022-09-01T06:12:11;98760.53;;;23.88;40.49
34370;BME280;20635;55.812;37.560;2022-09-01T06:14:44;98750.50;;;23.87;40.31
34370;BME280;20635;55.812;37.560;2022-09-01T06:17:13;98770.56;;;23.89;40.62
34370;BME280;20635;55.812;37.560;2022-09-01T06:19:46;98755.28;;;23.87;40.41
34370;BME280;20635;55.812;37.560;2022-09-01T06:22:13;98764.13;;;23.89;40.47
34370;BME280;20635;55.812;37.560;2022-09-01T06:24:39;98752.50;;;23.87;40.34
34370;BME280;20635;55.812;37.560;2022-09-01T06:27:06;98755.63;;;23.85;40.30
34370;BME280;20635;55.812;37.560;2022-09-01T06:29:36;98756.47;;;23.86;40.40
34370;BME280;20635;55.812;37.560;2022-09-01T06:32:08;98768.47;;;23.86;40.47
34370;BME280;20635;55.812;37.560;2022-09-01T06:34:38;98775.69;;;23.87;40.39
34370;BME280;20635;55.812;37.560;2022-09-01T06:37:04;98760.41;;;23.85;40.53
34370;BME280;20635;55.812;37.560;2022-09-01T06:39:31;98765.16;;;23.84;40.50
34370;BME280;20635;55.812;37.560;2022-09-01T06:41:59;98754.34;;;23.83;40.31
34370;BME280;20635;55.812;37.560;2022-09-01T06:44:34;98763.53;;;23.83;40.34
34370;BME280;20635;55.812;37.560;2022-09-01T06:47:04;98770.31;;;23.82;40.47
34370;BME280;20635;55.812;37.560;2022-09-01T06:49:30;98773.47;;;23.81;40.35
34370;BME280;20635;55.812;37.560;2022-09-01T06:52:00;98768.69;;;23.81;40.40
34370;BME280;20635;55.812;37.560;2022-09-01T06:54:28;98772.66;;;23.80;40.49
34370;BME280;20635;55.812;37.560;2022-09-01T06:56:59;98776.59;;;23.79;39.97
34370;BME280;20635;55.812;37.560;2022-09-01T06:59:29;98780.19;;;23.79;40.18
34370;BME280;20635;55.812;37.560;2022-09-01T07:01:58;98783.00;;;23.79;40.41
34370;BME280;20635;55.812;37.560;2022-09-01T07:04:48;98768.19;;;23.79;40.09
34370;BME280;20635;55.812;37.560;2022-09-01T07:07:14;98787.78;;;23.79;39.96
34370;BME280;20635;55.812;37.560;2022-09-01T07:10:17;98786.63;;;23.80;40.38
34370;BME280;20635;55.812;37.560;2022-09-01T07:12:55;98785.78;;;23.79;40.17
34370;BME280;20635;55.812;37.560;2022-09-01T07:15:22;98788.41;;;23.85;42.10
34370;BME280;20635;55.812;37.560;2022-09-01T07:17:53;98779.06;;;23.93;42.43
34370;BME280;20635;55.812;37.560;2022-09-01T07:20:24;98793.13;;;24.05;42.83
34370;BME280;20635;55.812;37.560;2022-09-01T07:22:52;98793.50;;;24.16;42.45
34370;BME280;20635;55.812;37.560;2022-09-01T07:25:18;98796.56;;;24.23;42.45
34370;BME280;20635;55.812;37.560;2022-09-01T07:28:07;98801.72;;;24.33;42.44
34370;BME280;20635;55.812;37.560;2022-09-01T07:30:39;98787.50;;;24.38;42.48
34370;BME280;20635;55.812;37.560;2022-09-01T07:33:06;98794.06;;;24.42;42.36
34370;BME280;20635;55.812;37.560;2022-09-01T07:35:39;98796.63;;;24.47;42.33
34370;BME280;20635;55.812;37.560;2022-09-01T07:38:05;98792.31;;;24.50;42.49
34370;BME280;20635;55.812;37.560;2022-09-01T07:40:33;98792.91;;;24.55;42.43
34370;BME280;20635;55.812;37.560;2022-09-01T07:43:23;98801.06;;;24.61;47.61
34370;BME280;20635;55.812;37.560;2022-09-01T07:46:13;98797.22;;;24.65;48.19
34370;BME280;20635;55.812;37.560;2022-09-01T07:48:39;98791.41;;;24.70;47.96
34370;BME280;20635;55.812;37.560;2022-09-01T07:51:05;98795.13;;;24.74;49.12
34370;BME280;20635;55.812;37.560;2022-09-01T07:53:33;98804.47;;;24.78;48.54
34370;BME280;20635;55.812;37.560;2022-09-01T07:56:07;98810.66;;;24.84;48.34
34370;BME280;20635;55.812;37.560;2022-09-01T07:58:38;98805.53;;;24.86;48.72
34370;BME280;20635;55.812;37.560;2022-09-01T08:01:08;98802.84;;;24.90;48.90
34370;BME280;20635;55.812;37.560;2022-09-01T08:03:36;98800.16;;;24.93;48.36
34370;BME280;20635;55.812;37.560;2022-09-01T08:06:06;98805.41;;;24.95;48.39
34370;BME280;20635;55.812;37.560;2022-09-01T08:08:34;98795.84;;;24.96;48.54
34370;BME280;20635;55.812;37.560;2022-09-01T08:11:01;98795.97;;;24.99;48.12
34370;BME280;20635;55.812;37.560;2022-09-01T08:13:28;98798.41;;;25.01;48.13
34370;BME280;20635;55.812;37.560;2022-09-01T08:15:54;98794.91;;;25.04;48.20
34370;BME280;20635;55.812;37.560;2022-09-01T08:18:21;98789.75;;;25.06;47.63
34370;BME280;20635;55.812;37.560;2022-09-01T08:20:47;98809.53;;;25.10;47.75
34370;BME280;20635;55.812;37.560;2022-09-01T08:23:40;98807.53;;;25.10;47.67
34370;BME280;20635;55.812;37.560;2022-09-01T08:26:13;98813.16;;;25.10;47.57
34370;BME280;20635;55.812;37.560;2022-09-01T08:28:40;98811.97;;;25.11;47.74
34370;BME280;20635;55.812;37.560;2022-09-01T08:31:10;98808.03;;;25.12;47.54
34370;BME280;20635;55.812;37.560;2022-09-01T08:33:40;98806.47;;;25.15;47.82
34370;BME280;20635;55.812;37.560;2022-09-01T08:36:10;98819.81;;;25.18;47.68
34370;BME280;20635;55.812;37.560;2022-09-01T08:38:36;98809.41;;;25.18;47.41
34370;BME280;20635;55.812;37.560;2022-09-01T08:41:05;98813.84;;;25.19;47.33
34370;BME280;20635;55.812;37.560;2022-09-01T08:46:26;98821.19;;;25.24;47.09
34370;BME280;20635;55.812;37.560;2022-09-01T08:48:58;98810.44;;;25.26;46.99
34370;BME280;20635;55.812;37.560;2022-09-01T08:51:42;98804.13;;;25.29;46.79
34370;BME280;20635;55.812;37.560;2022-09-01T08:54:22;98808.59;;;25.30;46.97
34370;BME280;20635;55.812;37.560;2022-09-01T08:56:53;98810.53;;;25.29;46.69
34370;BME280;20635;55.812;37.560;2022-09-01T08:59:40;98818.63;;;25.31;46.76
34370;BME280;20635;55.812;37.560;2022-09-01T09:02:38;98816.28;;;25.33;46.37
34370;BME280;20635;55.812;37.560;2022-09-01T09:10:59;98825.25;;;25.39;46.43
34370;BME280;20635;55.812;37.560;2022-09-01T09:16:38;98815.44;;;25.45;46.25
34370;BME280;20635;55.812;37.560;2022-09-01T09:19:50;98819.06;;;25.45;46.46
34370;BME280;20635;55.812;37.560;2022-09-01T09:21:59;98822.69;;;25.46;46.48
34370;BME280;20635;55.812;37.560;2022-09-01T09:24:31;98828.41;;;25.49;46.50
34370;BME280;20635;55.812;37.560;2022-09-01T09:27:19;98831.22;;;25.49;46.59
34370;BME280;20635;55.812;37.560;2022-09-01T09:29:50;98824.78;;;25.49;46.66
34370;BME280;20635;55.812;37.560;2022-09-01T09:32:19;98834.47;;;25.51;46.48
34370;BME280;20635;55.812;37.560;2022-09-01T09:34:46;98830.47;;;25.52;46.54
34370;BME280;20635;55.812;37.560;2022-09-01T09:39:44;98835.41;;;25.55;46.80
34370;BME280;20635;55.812;37.560;2022-09-01T09:42:12;98834.22;;;25.56;46.53
34370;BME280;20635;55.812;37.560;2022-09-01T09:44:47;98840.31;;;25.59;46.87
34370;BME280;20635;55.812;37.560;2022-09-01T09:50:33;98842.84;;;25.64;46.51
34370;BME280;20635;55.812;37.560;2022-09-01T09:55:35;98847.19;;;25.61;46.53
34370;BME280;20635;55.812;37.560;2022-09-01T09:58:09;98859.69;;;25.64;46.70
34370;BME280;20635;55.812;37.560;2022-09-01T10:00:36;98863.31;;;25.64;46.54
34370;BME280;20635;55.812;37.560;2022-09-01T10:03:08;98856.53;;;25.65;46.71
34370;BME280;20635;55.812;37.560;2022-09-01T10:05:43;98857.34;;;25.66;46.53
34370;BME280;20635;55.812;37.560;2022-09-01T10:10:51;98854.19;;;25.67;46.75
34370;BME280;20635;55.812;37.560;2022-09-01T10:13:23;98860.25;;;25.69;46.61
34370;BME280;20635;55.812;37.560;2022-09-01T10:15:59;98860.72;;;25.71;46.72
34370;BME280;20635;55.812;37.560;2022-09-01T10:18:34;98850.31;;;25.72;46.66
34370;BME280;20635;55.812;37.560;2022-09-01T10:23:33;98855.47;;;25.70;46.69
34370;BME280;20635;55.812;37.560;2022-09-01T10:26:08;98862.81;;;25.74;46.87
34370;BME280;20635;55.812;37.560;2022-09-01T10:28:46;98851.94;;;25.73;46.79
34370;BME280;20635;55.812;37.560;2022-09-01T10:31:13;98857.19;;;25.74;46.59
34370;BME280;20635;55.812;37.560;2022-09-01T10:33:39;98859.19;;;25.74;46.60
34370;BME280;20635;55.812;37.560;2022-09-01T10:36:06;98868.41;;;25.74;46.57
34370;BME280;20635;55.812;37.560;2022-09-01T10:38:32;98865.63;;;25.74;46.45
34370;BME280;20635;55.812;37.560;2022-09-01T10:40:58;98863.63;;;25.75;46.56
34370;BME280;20635;55.812;37.560;2022-09-01T10:43:43;98873.72;;;25.76;46.77
34370;BME280;20635;55.812;37.560;2022-09-01T10:48:45;98880.59;;;25.78;46.80
34370;BME280;20635;55.812;37.560;2022-09-01T10:53:51;98872.66;;;25.80;46.86
34370;BME280;20635;55.812;37.560;2022-09-01T10:59:04;98878.38;;;25.84;46.74
34370;BME280;20635;55.812;37.560;2022-09-01T11:09:26;98871.13;;;25.83;46.88
34370;BME280;20635;55.812;37.560;2022-09-01T11:12:15;98882.09;;;25.88;46.68
34370;BME280;20635;55.812;37.560;2022-09-01T11:17:32;98878.16;;;25.89;46.60
34370;BME280;20635;55.812;37.560;2022-09-01T11:20:21;98878.84;;;25.86;46.71
34370;BME280;20635;55.812;37.560;2022-09-01T11:23:03;98878.16;;;25.89;46.74
34370;BME280;20635;55.812;37.560;2022-09-01T11:25:45;98878.97;;;25.90;46.63
34370;BME280;20635;55.812;37.560;2022-09-01T11:30:55;98887.00;;;25.91;47.04
34370;BME280;20635;55.812;37.560;2022-09-01T11:42:14;98866.56;;;25.91;46.86
34370;BME280;20635;55.812;37.560;2022-09-01T11:46:58;98861.38;;;25.93;47.06
34370;BME280;20635;55.812;37.560;2022-09-01T11:49:32;98862.13;;;25.90;46.81
34370;BME280;20635;55.812;37.560;2022-09-01T11:51:59;98853.69;;;25.90;46.96
34370;BME280;20635;55.812;37.560;2022-09-01T11:54:27;98864.09;;;25.89;46.53
34370;BME280;20635;55.812;37.560;2022-09-01T11:56:54;98854.84;;;25.89;46.53
34370;BME280;20635;55.812;37.560;2022-09-01T11:59:34;98858.94;;;25.91;46.36
34370;BME280;20635;55.812;37.560;2022-09-01T12:02:01;98846.41;;;25.89;46.15
34370;BME280;20635;55.812;37.560;2022-09-01T12:04:34;98846.09;;;25.90;45.98
34370;BME280;20635;55.812;37.560;2022-09-01T12:07:13;98852.50;;;25.91;46.09
34370;BME280;20635;55.812;37.560;2022-09-01T12:09:48;98839.19;;;25.88;45.70
34370;BME280;20635;55.812;37.560;2022-09-01T12:14:56;98837.66;;;25.90;45.32
34370;BME280;20635;55.812;37.560;2022-09-01T12:17:22;98840.81;;;25.89;45.43
34370;BME280;20635;55.812;37.560;2022-09-01T12:19:48;98850.88;;;25.90;45.32
34370;BME280;20635;55.812;37.560;2022-09-01T12:22:18;98850.06;;;25.89;44.98
34370;BME280;20635;55.812;37.560;2022-09-01T12:24:47;98839.66;;;25.90;45.08
34370;BME280;20635;55.812;37.560;2022-09-01T12:27:14;98835.19;;;25.89;44.81
34370;BME280;20635;55.812;37.560;2022-09-01T12:29:41;98847.28;;;25.89;44.82
34370;BME280;20635;55.812;37.560;2022-09-01T12:32:07;98845.28;;;25.90;44.92
34370;BME280;20635;55.812;37.560;2022-09-01T12:34:59;98844.53;;;25.93;44.86
34370;BME280;20635;55.812;37.560;2022-09-01T12:37:26;98838.84;;;25.89;44.59
34370;BME280;20635;55.812;37.560;2022-09-01T12:39:54;98846.09;;;25.90;44.66
34370;BME280;20635;55.812;37.560;2022-09-01T12:45:08;98840.00;;;25.88;44.54
34370;BME280;20635;55.812;37.560;2022-09-01T12:50:30;98845.06;;;25.83;44.33
34370;BME280;20635;55.812;37.560;2022-09-01T12:52:59;98837.34;;;25.79;44.25
34370;BME280;20635;55.812;37.560;2022-09-01T12:55:31;98848.13;;;25.77;44.06
34370;BME280;20635;55.812;37.560;2022-09-01T12:58:00;98831.63;;;25.76;44.16
34370;BME280;20635;55.812;37.560;2022-09-01T13:00:29;98841.19;;;25.75;43.88
34370;BME280;20635;55.812;37.560;2022-09-01T13:10:32;98836.28;;;25.72;43.55
34370;BME280;20635;55.812;37.560;2022-09-01T13:12:59;98828.22;;;25.70;43.22
34370;BME280;20635;55.812;37.560;2022-09-01T13:15:26;98831.03;;;25.70;43.17
34370;BME280;20635;55.812;37.560;2022-09-01T13:17:52;98822.59;;;25.70;43.26
34370;BME280;20635;55.812;37.560;2022-09-01T13:20:18;98812.56;;;25.69;42.91
34370;BME280;20635;55.812;37.560;2022-09-01T13:22:44;98826.25;;;25.71;43.02
34370;BME280;20635;55.812;37.560;2022-09-01T13:25:12;98817.84;;;25.71;42.64
34370;BME280;20635;55.812;37.560;2022-09-01T13:27:39;98816.28;;;25.73;42.24
34370;BME280;20635;55.812;37.560;2022-09-01T13:30:13;98812.00;;;25.76;42.09
34370;BME280;20635;55.812;37.560;2022-09-01T13:32:43;98820.59;;;25.83;42.65
34370;BME280;20635;55.812;37.560;2022-09-01T13:35:11;98814.88;;;25.79;41.64
34370;BME280;20635;55.812;37.560;2022-09-01T13:37:38;98817.59;;;25.76;41.92
34370;BME280;20635;55.812;37.560;2022-09-01T13:40:04;98817.59;;;25.76;41.67
34370;BME280;20635;55.812;37.560;2022-09-01T13:42:43;98817.91;;;25.74;41.75
34370;BME280;20635;55.812;37.560;2022-09-01T13:45:11;98817.47;;;25.72;41.81
34370;BME280;20635;55.812;37.560;2022-09-01T13:47:41;98812.66;;;25.73;42.00
34370;BME280;20635;55.812;37.560;2022-09-01T13:50:09;98812.66;;;25.73;41.85
34370;BME280;20635;55.812;37.560;2022-09-01T13:52:42;98811.84;;;25.72;42.00
34370;BME280;20635;55.812;37.560;2022-09-01T13:55:12;98815.84;;;25.71;41.79
34370;BME280;20635;55.812;37.560;2022-09-01T13:57:38;98816.66;;;25.72;41.67
34370;BME280;20635;55.812;37.560;2022-09-01T14:00:07;98813.84;;;25.72;41.28
34370;BME280;20635;55.812;37.560;2022-09-01T14:02:39;98812.31;;;25.74;41.30
34370;BME280;20635;55.812;37.560;2022-09-01T14:05:06;98810.31;;;25.75;41.28
34370;BME280;20635;55.812;37.560;2022-09-01T14:07:32;98809.88;;;25.73;41.44
34370;BME280;20635;55.812;37.560;2022-09-01T14:09:58;98818.28;;;25.73;41.36
34370;BME280;20635;55.812;37.560;2022-09-01T14:12:36;98812.22;;;25.71;41.46
34370;BME280;20635;55.812;37.560;2022-09-01T14:15:03;98817.47;;;25.72;41.11
34370;BME280;20635;55.812;37.560;2022-09-01T14:17:29;98819.78;;;25.70;41.14
34370;BME280;20635;55.812;37.560;2022-09-01T14:19:55;98831.88;;;25.71;41.38
34370;BME280;20635;55.812;37.560;2022-09-01T14:22:21;98835.81;;;25.70;41.33
34370;BME280;20635;55.812;37.560;2022-09-01T14:24:47;98857.81;;;25.68;41.22